createdAt,value
2018-11-25T00:00:35.920Z,4.00
2018-11-25T00:03:04.482Z,3.90
2018-11-25T00:05:33.086Z,3.90
2018-11-25T00:08:01.543Z,4.00
2018-11-25T00:10:29.987Z,3.90
2018-11-25T00:12:58.437Z,3.90
2018-11-25T00:15:26.990Z,3.90
2018-11-25T00:17:55.449Z,3.90
2018-11-25T00:20:23.916Z,3.80
2018-11-25T00:22:52.597Z,3.80
2018-11-25T00:25:21.042Z,3.80
2018-11-25T00:27:49.533Z,3.80
2018-11-25T00:30:17.974Z,3.80
2018-11-25T00:32:46.634Z,3.80
2018-11-25T00:35:16.155Z,3.80
2018-11-25T00:37:48.380Z,3.80
2018-11-25T00:40:14.405Z,3.80
2018-11-25T00:42:43.325Z,3.80
2018-11-25T00:45:13.182Z,3.70
2018-11-25T00:47:41.723Z,3.70
2018-11-25T00:50:11.652Z,3.70
2018-11-25T00:52:40.112Z,3.70
2018-11-25T00:55:10.602Z,3.70
2018-11-25T00:57:39.037Z,3.70
2018-11-25T01:00:12.790Z,3.70
2018-11-25T01:02:41.278Z,3.70
2018-11-25T01:05:10.550Z,3.70
2018-11-25T01:07:39.188Z,3.70
2018-11-25T01:10:12.018Z,3.60
2018-11-25T01:12:40.486Z,3.60
2018-11-25T01:15:13.397Z,3.60
2018-11-25T01:17:42.349Z,3.70
2018-11-25T01:20:12.241Z,3.70
2018-11-25T01:22:40.667Z,3.70
2018-11-25T01:25:10.263Z,3.60
2018-11-25T01:27:38.746Z,3.70
2018-11-25T01:30:10.167Z,3.70
2018-11-25T01:32:38.627Z,3.60
2018-11-25T01:35:08.234Z,3.70
2018-11-25T01:37:36.699Z,3.60
2018-11-25T01:40:09.549Z,3.60
2018-11-25T01:42:38.009Z,3.70
2018-11-25T01:45:08.227Z,3.60
2018-11-25T01:47:36.664Z,3.60
2018-11-25T01:50:06.370Z,3.70
2018-11-25T01:52:34.813Z,3.70
2018-11-25T01:55:03.337Z,3.60
2018-11-25T01:57:31.768Z,3.60
2018-11-25T02:00:00.227Z,3.70
2018-11-25T02:02:28.751Z,3.70
2018-11-25T02:04:57.203Z,3.70
2018-11-25T02:07:26.136Z,3.70
2018-11-25T02:09:54.101Z,3.70
2018-11-25T02:12:22.878Z,3.70
2018-11-25T02:14:51.306Z,3.80
2018-11-25T02:17:19.886Z,3.70
2018-11-25T02:19:48.361Z,3.70
2018-11-25T02:22:16.811Z,3.70
2018-11-25T02:24:45.265Z,3.70
2018-11-25T02:27:13.694Z,3.70
2018-11-25T02:29:42.130Z,3.70
2018-11-25T02:32:10.567Z,3.70
2018-11-25T02:34:39.095Z,3.70
2018-11-25T02:37:07.549Z,3.80
2018-11-25T02:39:35.949Z,3.80
2018-11-25T02:42:04.417Z,3.80
2018-11-25T02:44:32.898Z,3.80
2018-11-25T02:47:01.966Z,3.80
2018-11-25T02:49:30.395Z,3.80
2018-11-25T02:51:58.830Z,3.80
2018-11-25T02:54:27.288Z,3.80
2018-11-25T02:56:55.717Z,3.80
2018-11-25T02:59:24.575Z,3.80
2018-11-25T03:01:53.007Z,3.90
2018-11-25T03:04:21.458Z,3.90
2018-11-25T03:06:49.955Z,3.90
2018-11-25T03:09:18.826Z,3.90
2018-11-25T03:11:47.265Z,3.90
2018-11-25T03:14:15.703Z,3.90
2018-11-25T03:16:44.971Z,3.90
2018-11-25T03:19:14.091Z,3.90
2018-11-25T03:21:42.576Z,3.90
2018-11-25T03:24:11.002Z,4.00
2018-11-25T03:26:39.441Z,3.90
2018-11-25T03:29:07.962Z,3.90
2018-11-25T03:31:36.861Z,3.90
2018-11-25T03:34:06.328Z,4.00
2018-11-25T03:36:34.755Z,4.00
2018-11-25T03:39:03.374Z,4.00
2018-11-25T03:41:31.800Z,4.00
2018-11-25T03:44:00.266Z,4.00
2018-11-25T03:46:28.696Z,4.00
2018-11-25T03:48:57.131Z,4.10
2018-11-25T03:51:25.586Z,4.10
2018-11-25T03:53:54.095Z,4.10
2018-11-25T03:56:22.555Z,4.10
2018-11-25T03:58:50.976Z,4.10
2018-11-25T04:01:19.442Z,4.10
2018-11-25T04:03:47.923Z,4.10
2018-11-25T04:06:16.370Z,4.10
2018-11-25T04:08:44.823Z,4.00
2018-11-25T04:11:13.268Z,4.10
2018-11-25T04:13:41.698Z,4.10
2018-11-25T04:16:10.197Z,4.10
2018-11-25T04:18:38.674Z,4.10
2018-11-25T04:21:07.173Z,4.10
2018-11-25T04:23:35.604Z,4.10
2018-11-25T04:26:04.099Z,4.10
2018-11-25T04:28:32.562Z,4.10
2018-11-25T04:31:01.016Z,4.00
2018-11-25T04:33:29.446Z,4.00
2018-11-25T04:35:57.899Z,3.80
2018-11-25T04:38:26.331Z,3.60
2018-11-25T04:40:54.864Z,3.50
2018-11-25T04:43:23.350Z,3.50
2018-11-25T04:45:51.769Z,3.40
2018-11-25T04:48:20.219Z,3.40
2018-11-25T04:50:48.638Z,3.40
2018-11-25T04:53:17.106Z,3.40
2018-11-25T04:55:45.510Z,3.30
2018-11-25T04:58:14.044Z,3.30
2018-11-25T05:00:42.529Z,3.30
2018-11-25T05:03:10.987Z,3.40
2018-11-25T05:05:39.450Z,3.40
2018-11-25T05:08:07.928Z,3.40
2018-11-25T05:10:36.419Z,3.40
2018-11-25T05:13:06.079Z,3.40
2018-11-25T05:15:34.502Z,3.50
2018-11-25T05:18:02.966Z,3.50
2018-11-25T05:20:31.419Z,3.40
2018-11-25T05:22:59.844Z,3.50
2018-11-25T05:25:28.297Z,3.40
2018-11-25T05:27:56.751Z,3.40
2018-11-25T05:30:25.217Z,3.30
2018-11-25T05:32:53.710Z,3.30
2018-11-25T05:35:22.400Z,3.40
2018-11-25T05:37:50.877Z,3.40
2018-11-25T05:40:19.428Z,3.40
2018-11-25T05:42:47.892Z,3.40
2018-11-25T05:45:18.192Z,3.40
2018-11-25T05:47:46.667Z,3.30
2018-11-25T05:50:17.030Z,3.40
2018-11-25T05:52:45.614Z,3.30
2018-11-25T05:55:14.398Z,3.30
2018-11-25T05:57:42.987Z,3.30
2018-11-25T06:00:15.591Z,3.40
2018-11-25T06:02:44.145Z,3.40
2018-11-25T06:05:12.626Z,3.40
2018-11-25T06:07:41.231Z,3.40
2018-11-25T06:10:11.850Z,3.50
2018-11-25T06:12:40.392Z,3.40
2018-11-25T06:15:12.154Z,3.50
2018-11-25T06:17:40.636Z,3.50
2018-11-25T06:20:15.151Z,3.50
2018-11-25T06:22:43.684Z,3.50
2018-11-25T06:25:16.069Z,3.50
2018-11-25T06:27:44.526Z,3.50
2018-11-25T06:30:14.226Z,3.50
2018-11-25T06:32:42.726Z,3.50
2018-11-25T06:35:12.274Z,3.50
2018-11-25T06:37:40.713Z,3.40
2018-11-25T06:40:11.341Z,3.50
2018-11-25T06:42:40.593Z,3.50
2018-11-25T06:45:18.178Z,3.50
2018-11-25T06:47:46.634Z,3.50
2018-11-25T06:50:15.090Z,3.50
2018-11-25T06:52:43.528Z,3.50
2018-11-25T06:55:12.816Z,3.50
2018-11-25T06:57:41.280Z,3.50
2018-11-25T07:00:16.963Z,3.50
2018-11-25T07:02:45.503Z,3.50
2018-11-25T07:05:14.003Z,3.50
2018-11-25T07:07:42.446Z,3.40
2018-11-25T07:10:14.202Z,3.50
2018-11-25T07:12:42.647Z,3.50
2018-11-25T07:15:16.039Z,3.50
2018-11-25T07:17:44.547Z,3.50
2018-11-25T07:20:17.004Z,3.40
2018-11-25T07:22:45.502Z,3.40
2018-11-25T07:25:18.397Z,3.40
2018-11-25T07:27:46.863Z,3.40
2018-11-25T07:30:19.731Z,3.40
2018-11-25T07:32:48.217Z,3.40
2018-11-25T07:35:16.713Z,3.40
2018-11-25T07:37:45.152Z,3.40
2018-11-25T07:40:14.682Z,3.40
2018-11-25T07:42:43.215Z,3.40
2018-11-25T07:45:13.394Z,3.40
2018-11-25T07:47:41.855Z,3.40
2018-11-25T07:50:11.397Z,3.40
2018-11-25T07:52:40.142Z,3.30
2018-11-25T07:55:10.800Z,3.20
2018-11-25T07:57:39.603Z,3.20
2018-11-25T08:00:23.873Z,3.20
2018-11-25T08:02:52.370Z,3.20
2018-11-25T08:05:23.849Z,3.20
2018-11-25T08:07:52.331Z,3.20
2018-11-25T08:10:20.803Z,3.20
2018-11-25T08:12:49.295Z,3.20
2018-11-25T08:15:18.791Z,3.20
2018-11-25T08:17:47.371Z,3.20
2018-11-25T08:20:17.853Z,3.20
2018-11-25T08:22:46.376Z,3.20
2018-11-25T08:25:17.492Z,3.20
2018-11-25T08:27:46.091Z,3.20
2018-11-25T08:30:21.943Z,3.20
2018-11-25T08:32:50.950Z,3.30
2018-11-25T08:35:20.234Z,3.20
2018-11-25T08:37:48.746Z,3.20
2018-11-25T08:40:18.247Z,3.20
2018-11-25T08:42:46.690Z,3.20
2018-11-25T08:45:15.770Z,3.20
2018-11-25T08:47:44.516Z,3.40
2018-11-25T08:50:15.040Z,3.30
2018-11-25T08:52:44.532Z,3.30
2018-11-25T08:55:15.122Z,3.30
2018-11-25T08:57:43.755Z,3.30
2018-11-25T09:00:15.390Z,3.20
2018-11-25T09:02:43.883Z,3.30
2018-11-25T09:05:14.503Z,3.40
2018-11-25T09:07:43.195Z,3.40
2018-11-25T09:10:16.814Z,3.40
2018-11-25T09:12:55.320Z,3.40
2018-11-25T09:15:18.344Z,3.40
2018-11-25T09:17:46.815Z,3.40
2018-11-25T09:20:16.447Z,3.40
2018-11-25T09:22:44.972Z,3.40
2018-11-25T09:25:15.742Z,3.40
2018-11-25T09:27:44.694Z,3.30
2018-11-25T09:30:14.531Z,3.30
2018-11-25T09:32:42.973Z,3.30
2018-11-25T09:35:12.798Z,3.40
2018-11-25T09:37:41.229Z,3.40
2018-11-25T09:40:12.066Z,3.50
2018-11-25T09:42:40.514Z,3.40
2018-11-25T09:45:14.359Z,3.40
2018-11-25T09:47:43.222Z,3.50
2018-11-25T09:50:12.939Z,3.70
2018-11-25T09:52:41.404Z,3.70
2018-11-25T09:55:25.115Z,3.70
2018-11-25T09:58:01.090Z,3.60
2018-11-25T10:00:31.487Z,3.60
2018-11-25T10:02:59.923Z,3.50
2018-11-25T10:05:28.418Z,3.60
2018-11-25T10:08:03.409Z,3.60
2018-11-25T10:10:31.854Z,3.70
2018-11-25T10:13:00.297Z,3.70
2018-11-25T10:15:29.594Z,3.60
2018-11-25T10:17:59.754Z,3.60
2018-11-25T10:20:28.679Z,3.50
2018-11-25T10:22:57.154Z,3.60
2018-11-25T10:25:25.622Z,3.60
2018-11-25T10:27:54.117Z,3.70
2018-11-25T10:30:24.739Z,3.70
2018-11-25T10:33:01.888Z,3.70
2018-11-25T10:35:30.401Z,3.70
2018-11-25T10:38:00.080Z,3.70
2018-11-25T10:40:28.840Z,3.70
2018-11-25T10:42:57.285Z,3.80
2018-11-25T10:45:26.808Z,3.70
2018-11-25T10:47:56.035Z,3.70
2018-11-25T10:50:24.511Z,3.80
2018-11-25T10:52:52.990Z,3.80
2018-11-25T10:55:22.203Z,3.70
2018-11-25T10:57:51.634Z,3.70
2018-11-25T11:00:29.663Z,3.70
2018-11-25T11:03:03.523Z,3.70
2018-11-25T11:05:37.363Z,3.70
2018-11-25T11:08:07.096Z,3.70
2018-11-25T11:10:35.598Z,3.70
2018-11-25T11:13:04.137Z,3.70
2018-11-25T11:15:32.601Z,3.70
2018-11-25T11:18:01.052Z,3.70
2018-11-25T11:20:29.495Z,3.60
2018-11-25T11:22:59.076Z,3.60
2018-11-25T11:25:27.556Z,3.70
2018-11-25T11:27:56.015Z,3.70
2018-11-25T11:30:24.459Z,3.70
2018-11-25T11:32:52.915Z,3.70
2018-11-25T11:35:21.528Z,3.70
2018-11-25T11:37:50.001Z,3.70
2018-11-25T11:40:18.445Z,3.70
2018-11-25T11:42:46.906Z,3.60
2018-11-25T11:45:15.865Z,3.60
2018-11-25T11:47:45.387Z,3.50
2018-11-25T11:50:15.804Z,3.50
2018-11-25T11:52:44.265Z,3.50
2018-11-25T11:55:14.007Z,3.50
2018-11-25T11:57:42.989Z,3.40
2018-11-25T12:00:14.003Z,3.50
2018-11-25T12:02:42.552Z,3.50
2018-11-25T12:05:11.021Z,3.40
2018-11-25T12:07:39.510Z,3.40
2018-11-25T12:10:13.394Z,3.40
2018-11-25T12:12:41.835Z,3.40
2018-11-25T12:15:14.028Z,3.40
2018-11-25T12:17:42.466Z,3.40
2018-11-25T12:20:11.410Z,3.50
2018-11-25T12:22:40.079Z,3.50
2018-11-25T12:25:11.151Z,3.50
2018-11-25T12:27:39.629Z,3.50
2018-11-25T12:30:11.616Z,3.60
2018-11-25T12:32:40.420Z,3.60
2018-11-25T12:35:10.090Z,3.60
2018-11-25T12:37:38.527Z,3.60
2018-11-25T12:40:11.570Z,3.80
2018-11-25T12:42:40.570Z,3.70
2018-11-25T12:45:10.786Z,3.70
2018-11-25T12:47:39.288Z,3.70
2018-11-25T12:50:10.679Z,3.70
2018-11-25T12:52:39.162Z,3.70
2018-11-25T12:55:10.155Z,3.70
2018-11-25T12:57:38.619Z,3.70
2018-11-25T13:00:17.747Z,3.80
2018-11-25T13:02:46.211Z,3.80
2018-11-25T13:05:14.686Z,3.80
2018-11-25T13:07:43.139Z,3.70
2018-11-25T13:10:11.592Z,3.70
2018-11-25T13:12:40.067Z,3.70
2018-11-25T13:15:09.301Z,3.70
2018-11-25T13:17:37.774Z,3.80
2018-11-25T13:20:10.003Z,3.80
2018-11-25T13:22:39.020Z,3.80
2018-11-25T13:25:09.105Z,3.70
2018-11-25T13:27:37.672Z,3.70
2018-11-25T13:30:21.419Z,3.80
2018-11-25T13:32:51.187Z,3.60
2018-11-25T13:35:19.700Z,3.50
2018-11-25T13:37:48.185Z,3.50
2018-11-25T13:40:17.309Z,3.60
2018-11-25T13:42:45.766Z,3.60
2018-11-25T13:45:14.331Z,3.60
2018-11-25T13:47:42.783Z,3.60
2018-11-25T13:50:12.254Z,3.60
2018-11-25T13:52:40.749Z,3.60
2018-11-25T13:55:10.931Z,3.60
2018-11-25T13:57:39.423Z,3.60
2018-11-25T14:00:43.903Z,3.60
2018-11-25T14:03:17.267Z,3.60
2018-11-25T14:05:52.638Z,3.50
2018-11-25T14:08:14.343Z,3.60
2018-11-25T14:10:42.910Z,3.60
2018-11-25T14:13:11.445Z,3.50
2018-11-25T14:15:39.958Z,3.50
2018-11-25T14:18:08.394Z,3.50
2018-11-25T14:20:36.851Z,3.50
2018-11-25T14:23:05.625Z,3.60
2018-11-25T14:25:34.063Z,3.60
2018-11-25T14:28:06.049Z,3.60
2018-11-25T14:30:34.515Z,3.60
2018-11-25T14:33:02.977Z,3.70
2018-11-25T14:35:31.532Z,3.60
2018-11-25T14:37:59.958Z,3.60
2018-11-25T14:40:28.403Z,3.70
2018-11-25T14:42:56.835Z,3.60
2018-11-25T14:45:25.256Z,3.60
2018-11-25T14:47:53.681Z,3.60
2018-11-25T14:50:22.658Z,3.70
2018-11-25T14:52:52.306Z,3.60
2018-11-25T14:55:21.027Z,3.70
2018-11-25T14:57:49.634Z,3.70
2018-11-25T15:00:21.876Z,3.60
2018-11-25T15:02:58.095Z,3.60
2018-11-25T15:05:33.508Z,3.60
2018-11-25T15:08:01.990Z,3.60
2018-11-25T15:10:30.410Z,3.60
2018-11-25T15:12:58.890Z,3.60
2018-11-25T15:15:27.343Z,3.60
2018-11-25T15:17:55.794Z,3.60
2018-11-25T15:20:24.259Z,3.60
2018-11-25T15:22:54.434Z,3.60
2018-11-25T15:25:25.101Z,3.70
2018-11-25T15:27:53.763Z,3.70
2018-11-25T15:30:22.216Z,3.70
2018-11-25T15:32:50.674Z,3.70
2018-11-25T15:35:19.100Z,3.60
2018-11-25T15:37:49.153Z,3.70
2018-11-25T15:40:28.106Z,3.70
2018-11-25T15:42:56.605Z,3.70
2018-11-25T15:45:25.171Z,3.70
2018-11-25T15:47:56.047Z,3.70
2018-11-25T15:50:26.239Z,3.70
2018-11-25T15:52:55.638Z,3.60
2018-11-25T15:55:24.616Z,3.70
2018-11-25T15:57:53.350Z,3.60
2018-11-25T16:00:23.144Z,3.70
2018-11-25T16:02:51.667Z,3.70
2018-11-25T16:05:24.441Z,3.60
2018-11-25T16:07:52.907Z,3.70
2018-11-25T16:10:21.853Z,3.70
2018-11-25T16:12:51.158Z,3.70
2018-11-25T16:15:21.089Z,3.70
2018-11-25T16:17:49.567Z,3.70
2018-11-25T16:20:25.276Z,3.70
2018-11-25T16:22:56.314Z,3.80
2018-11-25T16:25:33.855Z,3.80
2018-11-25T16:28:08.452Z,3.70
2018-11-25T16:30:37.131Z,3.80
2018-11-25T16:33:05.622Z,3.80
2018-11-25T16:35:34.068Z,3.80
2018-11-25T16:38:02.492Z,3.80
2018-11-25T16:40:30.955Z,3.80
2018-11-25T16:42:59.403Z,3.80
2018-11-25T16:45:27.824Z,3.80
2018-11-25T16:47:56.254Z,3.90
2018-11-25T16:50:25.408Z,3.90
2018-11-25T16:52:53.239Z,3.90
2018-11-25T16:55:21.699Z,3.80
2018-11-25T16:57:50.168Z,3.80
2018-11-25T17:00:19.567Z,3.80
2018-11-25T17:02:48.667Z,3.80
2018-11-25T17:05:25.734Z,3.90
2018-11-25T17:07:56.327Z,3.90
2018-11-25T17:10:24.826Z,3.80
2018-11-25T17:12:53.322Z,3.80
2018-11-25T17:15:23.329Z,3.80
2018-11-25T17:17:51.818Z,3.80
2018-11-25T17:20:20.290Z,3.80
2018-11-25T17:22:48.786Z,3.80
2018-11-25T17:25:17.283Z,3.80
2018-11-25T17:27:45.777Z,3.80
2018-11-25T17:30:21.203Z,3.80
2018-11-25T17:32:49.778Z,3.80
2018-11-25T17:35:23.984Z,3.80
2018-11-25T17:37:52.443Z,3.80
2018-11-25T17:40:20.912Z,3.70
2018-11-25T17:42:49.935Z,3.70
2018-11-25T17:45:18.449Z,3.70
2018-11-25T17:47:46.956Z,3.80
2018-11-25T17:50:18.968Z,3.70
2018-11-25T17:52:48.285Z,3.70
2018-11-25T17:55:17.460Z,3.70
2018-11-25T17:57:45.958Z,3.70
2018-11-25T18:00:19.091Z,3.70
2018-11-25T18:02:47.562Z,3.70
2018-11-25T18:05:16.075Z,3.70
2018-11-25T18:07:44.569Z,3.70
2018-11-25T18:10:13.748Z,3.70
2018-11-25T18:12:42.438Z,3.70
2018-11-25T18:15:13.876Z,3.70
2018-11-25T18:17:45.057Z,3.60
2018-11-25T18:20:13.667Z,3.70
2018-11-25T18:22:46.363Z,3.70
2018-11-25T18:25:14.824Z,3.70
2018-11-25T18:27:43.351Z,3.60
2018-11-25T18:30:13.503Z,3.70
2018-11-25T18:32:42.731Z,3.70
2018-11-25T18:35:11.248Z,3.70
2018-11-25T18:37:39.760Z,3.70
2018-11-25T18:40:11.329Z,3.70
2018-11-25T18:42:40.178Z,3.70
2018-11-25T18:45:15.028Z,3.70
2018-11-25T18:47:46.013Z,3.70
2018-11-25T18:50:15.552Z,3.70
2018-11-25T18:52:45.730Z,3.70
2018-11-25T18:55:13.038Z,3.70
2018-11-25T18:57:41.492Z,3.70
2018-11-25T19:00:14.010Z,3.70
2018-11-25T19:02:44.389Z,3.70
2018-11-25T19:05:12.920Z,3.60
2018-11-25T19:07:41.363Z,3.70
2018-11-25T19:10:15.156Z,3.70
2018-11-25T19:12:44.171Z,3.70
2018-11-25T19:15:14.572Z,3.60
2018-11-25T19:17:43.031Z,3.60
2018-11-25T19:20:20.695Z,3.60
2018-11-25T19:22:49.162Z,3.60
2018-11-25T19:25:17.930Z,3.60
2018-11-25T19:27:47.274Z,3.60
2018-11-25T19:30:16.216Z,3.60
2018-11-25T19:32:46.555Z,3.60
2018-11-25T19:35:17.896Z,3.60
2018-11-25T19:37:47.204Z,3.60
2018-11-25T19:40:17.783Z,3.60
2018-11-25T19:42:46.234Z,3.50
2018-11-25T19:45:18.011Z,3.50
2018-11-25T19:47:46.446Z,3.50
2018-11-25T19:50:17.191Z,3.50
2018-11-25T19:52:45.678Z,3.50
2018-11-25T19:55:14.398Z,3.50
2018-11-25T19:57:42.834Z,3.50
2018-11-25T20:00:14.179Z,3.60
2018-11-25T20:02:42.627Z,3.60
2018-11-25T20:05:13.869Z,3.60
2018-11-25T20:07:43.309Z,3.60
2018-11-25T20:10:13.654Z,3.60
2018-11-25T20:12:43.912Z,3.50
2018-11-25T20:15:13.490Z,3.60
2018-11-25T20:17:42.009Z,3.50
2018-11-25T20:20:14.695Z,3.60
2018-11-25T20:22:44.175Z,3.60
2018-11-25T20:25:13.526Z,3.60
2018-11-25T20:27:47.167Z,3.60
2018-11-25T20:30:18.986Z,3.60
2018-11-25T20:32:52.881Z,3.60
2018-11-25T20:35:21.368Z,3.60
2018-11-25T20:37:55.230Z,3.60
2018-11-25T20:40:23.749Z,3.60
2018-11-25T20:42:52.385Z,3.50
2018-11-25T20:45:27.226Z,3.60
2018-11-25T20:47:57.118Z,3.70
2018-11-25T20:50:25.571Z,3.50
2018-11-25T20:52:59.287Z,3.50
2018-11-25T20:55:27.730Z,3.50
2018-11-25T20:57:56.213Z,3.60
2018-11-25T21:00:26.593Z,3.50
2018-11-25T21:02:55.026Z,3.60
2018-11-25T21:05:23.962Z,3.60
2018-11-25T21:07:51.959Z,3.60
2018-11-25T21:10:20.749Z,3.60
2018-11-25T21:12:53.276Z,3.60
2018-11-25T21:15:21.735Z,3.60
2018-11-25T21:17:50.190Z,3.60
2018-11-25T21:20:20.148Z,3.70
2018-11-25T21:22:48.622Z,3.70
2018-11-25T21:25:19.230Z,3.70
2018-11-25T21:27:47.731Z,3.70
2018-11-25T21:30:21.207Z,3.70
2018-11-25T21:32:51.764Z,3.70
2018-11-25T21:35:20.892Z,3.70
2018-11-25T21:37:49.359Z,3.60
2018-11-25T21:40:19.895Z,3.60
2018-11-25T21:42:48.369Z,3.60
2018-11-25T21:45:17.987Z,3.60
2018-11-25T21:47:47.156Z,3.60
2018-11-25T21:50:18.613Z,3.60
2018-11-25T21:52:47.060Z,3.70
2018-11-25T21:55:16.472Z,3.70
2018-11-25T21:57:44.966Z,3.70
2018-11-25T22:00:15.076Z,3.70
2018-11-25T22:02:43.555Z,3.70
2018-11-25T22:05:12.539Z,3.60
2018-11-25T22:07:41.019Z,3.70
2018-11-25T22:10:10.730Z,3.70
2018-11-25T22:12:39.973Z,3.70
2018-11-25T22:15:14.305Z,3.70
2018-11-25T22:17:42.850Z,3.70
2018-11-25T22:20:12.486Z,3.70
2018-11-25T22:22:41.034Z,3.70
2018-11-25T22:25:10.800Z,3.70
2018-11-25T22:27:40.043Z,3.70
2018-11-25T22:30:13.952Z,3.70
2018-11-25T22:32:42.476Z,3.70
2018-11-25T22:35:13.742Z,3.70
2018-11-25T22:37:43.283Z,3.70
2018-11-25T22:40:12.864Z,3.70
2018-11-25T22:42:43.046Z,3.80
2018-11-25T22:45:12.850Z,3.80
2018-11-25T22:47:41.416Z,3.80
2018-11-25T22:50:11.838Z,3.70
2018-11-25T22:52:40.321Z,3.70
2018-11-25T22:55:10.915Z,3.70
2018-11-25T22:57:39.382Z,3.70
2018-11-25T23:00:20.868Z,3.70
2018-11-25T23:02:49.368Z,3.60
2018-11-25T23:05:28.947Z,3.60
2018-11-25T23:07:57.440Z,3.60
2018-11-25T23:10:32.428Z,3.60
2018-11-25T23:13:00.992Z,3.60
2018-11-25T23:15:29.556Z,3.70
2018-11-25T23:17:58.055Z,3.60
2018-11-25T23:20:26.640Z,3.70
2018-11-25T23:22:55.121Z,3.60
2018-11-25T23:25:23.653Z,3.60
2018-11-25T23:27:52.110Z,3.60
2018-11-25T23:30:20.606Z,3.60
2018-11-25T23:32:49.135Z,3.70
2018-11-25T23:35:20.243Z,3.70
2018-11-25T23:37:48.707Z,3.80
2018-11-25T23:40:17.171Z,3.70
2018-11-25T23:42:45.691Z,3.70
2018-11-25T23:45:15.584Z,3.80
2018-11-25T23:47:44.161Z,3.80
2018-11-25T23:50:13.772Z,3.80
2018-11-25T23:52:43.244Z,3.70
2018-11-25T23:55:12.991Z,3.70
2018-11-25T23:57:41.658Z,3.80
